Hemby, North Carolina
Current Conditions -  °F | °C
As of 1:53 AM on Saturday 20 Dec 2014 (Local Time) from KEQY Reporting Station
Few Clouds Few Clouds  
Wind Chill: 38°   Ceiling: Unl
Heat Index: 43°   Visibility: 10mi
Dew Point: 30°   Wind: 8mph
Humidity: 60%   Direction: 50°NE
Pressure: 30.17"   Gusts: NA
Location:  35.0963°N, 80.6145°W
Report Text: KEQY 200653Z AUTO 05007KT 10SM FEW120 06/M01 A3017 RMK AO2 SLP230 T00611011
Loading
Personal Weather Stations






























Interactive Weather Map New forecast layout! Learn more

10-Day Weather Forecast

Advertisements
Track Severe Weather on mobile